sensor_id;sensor_type;location;lat;lon;timestamp;pressure;altitude;pressure_sealevel;temperature;humidity
72086;BME280;64750;52.134;5.424;2023-07-31T00:01:28;101120.41;;;17.34;83.94
72086;BME280;64750;52.134;5.424;2023-07-31T00:03:54;101118.72;;;17.33;83.96
72086;BME280;64750;52.134;5.424;2023-07-31T00:06:21;101115.97;;;17.34;84.39
72086;BME280;64750;52.134;5.424;2023-07-31T00:08:47;101108.00;;;17.34;84.54
72086;BME280;64750;52.134;5.424;2023-07-31T00:11:14;101092.88;;;17.35;84.56
72086;BME280;64750;52.134;5.424;2023-07-31T00:13:40;101096.50;;;17.34;85.07
72086;BME280;64750;52.134;5.424;2023-07-31T00:16:07;101084.91;;;17.35;84.72
72086;BME280;64750;52.134;5.424;2023-07-31T00:18:34;101083.06;;;17.35;85.25
72086;BME280;64750;52.134;5.424;2023-07-31T00:21:00;101072.91;;;17.41;85.27
72086;BME280;64750;52.134;5.424;2023-07-31T00:23:27;101077.25;;;17.42;85.50
72086;BME280;64750;52.134;5.424;2023-07-31T00:25:53;101075.31;;;17.44;85.67
72086;BME280;64750;52.134;5.424;2023-07-31T00:28:20;101074.22;;;17.46;85.50
72086;BME280;64750;52.134;5.424;2023-07-31T00:30:46;101072.38;;;17.47;84.79
72086;BME280;64750;52.134;5.424;2023-07-31T00:33:13;101084.25;;;17.43;85.47
72086;BME280;64750;52.134;5.424;2023-07-31T00:35:39;101078.50;;;17.37;85.54
72086;BME280;64750;52.134;5.424;2023-07-31T00:38:06;101069.41;;;17.40;85.50
72086;BME280;64750;52.134;5.424;2023-07-31T00:40:36;101067.72;;;17.39;85.77
72086;BME280;64750;52.134;5.424;2023-07-31T00:43:03;101068.81;;;17.36;85.94
72086;BME280;64750;52.134;5.424;2023-07-31T00:45:30;101067.59;;;17.41;86.19
72086;BME280;64750;52.134;5.424;2023-07-31T00:48:01;101060.34;;;17.43;86.40
72086;BME280;64750;52.134;5.424;2023-07-31T00:50:28;101068.44;;;17.41;86.64
72086;BME280;64750;52.134;5.424;2023-07-31T00:52:55;101063.72;;;17.45;86.79
72086;BME280;64750;52.134;5.424;2023-07-31T00:55:21;101056.56;;;17.45;87.38
72086;BME280;64750;52.134;5.424;2023-07-31T00:57:49;101054.75;;;17.46;87.44
72086;BME280;64750;52.134;5.424;2023-07-31T01:00:16;101050.69;;;17.42;88.01
72086;BME280;64750;52.134;5.424;2023-07-31T01:02:43;101043.44;;;17.44;88.71
72086;BME280;64750;52.134;5.424;2023-07-31T01:05:10;101053.63;;;17.48;88.21
72086;BME280;64750;52.134;5.424;2023-07-31T01:07:50;101042.75;;;17.51;88.63
72086;BME280;64750;52.134;5.424;2023-07-31T01:10:26;101046.97;;;17.54;88.74
72086;BME280;64750;52.134;5.424;2023-07-31T01:12:53;101046.00;;;17.55;88.84
72086;BME280;64750;52.134;5.424;2023-07-31T01:15:22;101049.75;;;17.52;88.79
72086;BME280;64750;52.134;5.424;2023-07-31T01:17:49;101061.22;;;17.53;89.37
72086;BME280;64750;52.134;5.424;2023-07-31T01:20:22;101067.66;;;17.50;89.69
72086;BME280;64750;52.134;5.424;2023-07-31T01:26:11;101058.91;;;17.38;89.05
72086;BME280;64750;52.134;5.424;2023-07-31T01:31:22;101058.06;;;17.38;88.93
72086;BME280;64750;52.134;5.424;2023-07-31T01:33:54;101048.53;;;17.35;88.85
72086;BME280;64750;52.134;5.424;2023-07-31T01:36:22;101053.59;;;17.38;88.64
72086;BME280;64750;52.134;5.424;2023-07-31T01:38:49;101058.34;;;17.35;88.72
72086;BME280;64750;52.134;5.424;2023-07-31T01:41:17;101054.84;;;17.34;89.24
72086;BME280;64750;52.134;5.424;2023-07-31T01:43:47;101050.50;;;17.33;88.94
72086;BME280;64750;52.134;5.424;2023-07-31T01:46:14;101050.22;;;17.36;89.37
72086;BME280;64750;52.134;5.424;2023-07-31T01:48:41;101051.34;;;17.34;89.24
72086;BME280;64750;52.134;5.424;2023-07-31T01:51:07;101045.78;;;17.37;89.67
72086;BME280;64750;52.134;5.424;2023-07-31T01:53:34;101044.91;;;17.36;89.85
72086;BME280;64750;52.134;5.424;2023-07-31T01:56:00;101038.19;;;17.32;90.28
72086;BME280;64750;52.134;5.424;2023-07-31T01:58:27;101037.91;;;17.35;90.30
72086;BME280;64750;52.134;5.424;2023-07-31T02:00:53;101041.28;;;17.37;90.23
72086;BME280;64750;52.134;5.424;2023-07-31T02:03:20;101028.72;;;17.40;90.35
72086;BME280;64750;52.134;5.424;2023-07-31T02:05:48;101034.72;;;17.42;90.27
72086;BME280;64750;52.134;5.424;2023-07-31T02:08:15;101031.50;;;17.38;90.15
72086;BME280;64750;52.134;5.424;2023-07-31T02:10:42;101031.38;;;17.40;90.52
72086;BME280;64750;52.134;5.424;2023-07-31T02:13:09;101028.72;;;17.40;89.99
72086;BME280;64750;52.134;5.424;2023-07-31T02:15:37;101017.66;;;17.34;90.11
72086;BME280;64750;52.134;5.424;2023-07-31T02:18:03;101007.84;;;17.35;89.83
72086;BME280;64750;52.134;5.424;2023-07-31T02:20:32;101014.41;;;17.31;89.66
72086;BME280;64750;52.134;5.424;2023-07-31T02:22:59;101003.47;;;17.24;90.03
72086;BME280;64750;52.134;5.424;2023-07-31T02:25:26;101001.53;;;17.26;90.36
72086;BME280;64750;52.134;5.424;2023-07-31T02:27:52;101002.94;;;17.30;90.11
72086;BME280;64750;52.134;5.424;2023-07-31T02:30:18;101004.63;;;17.31;89.96
72086;BME280;64750;52.134;5.424;2023-07-31T02:32:45;101000.41;;;17.29;90.20
72086;BME280;64750;52.134;5.424;2023-07-31T02:35:11;101000.72;;;17.35;90.34
72086;BME280;64750;52.134;5.424;2023-07-31T02:37:42;101000.72;;;17.35;90.07
72086;BME280;64750;52.134;5.424;2023-07-31T02:40:09;100995.28;;;17.37;90.15
72086;BME280;64750;52.134;5.424;2023-07-31T02:42:35;100993.31;;;17.39;89.95
72086;BME280;64750;52.134;5.424;2023-07-31T02:45:02;101004.94;;;17.38;89.87
72086;BME280;64750;52.134;5.424;2023-07-31T02:47:28;101006.16;;;17.34;89.74
72086;BME280;64750;52.134;5.424;2023-07-31T02:49:55;101001.00;;;17.32;89.85
72086;BME280;64750;52.134;5.424;2023-07-31T02:52:22;100998.34;;;17.32;90.13
72086;BME280;64750;52.134;5.424;2023-07-31T02:54:48;100993.75;;;17.34;90.16
72086;BME280;64750;52.134;5.424;2023-07-31T02:57:15;100992.75;;;17.35;90.20
72086;BME280;64750;52.134;5.424;2023-07-31T02:59:42;100985.50;;;17.37;90.09
72086;BME280;64750;52.134;5.424;2023-07-31T03:02:09;100980.03;;;17.39;89.84
72086;BME280;64750;52.134;5.424;2023-07-31T03:04:35;100986.22;;;17.40;89.76
72086;BME280;64750;52.134;5.424;2023-07-31T03:07:02;100987.88;;;17.41;89.37
72086;BME280;64750;52.134;5.424;2023-07-31T03:09:28;100977.53;;;17.37;89.67
72086;BME280;64750;52.134;5.424;2023-07-31T03:11:55;100990.66;;;17.39;89.68
72086;BME280;64750;52.134;5.424;2023-07-31T03:14:21;100986.47;;;17.36;89.83
72086;BME280;64750;52.134;5.424;2023-07-31T03:16:48;100987.31;;;17.37;89.81
72086;BME280;64750;52.134;5.424;2023-07-31T03:19:15;100985.78;;;17.34;89.82
72086;BME280;64750;52.134;5.424;2023-07-31T03:21:41;100982.69;;;17.29;89.98
72086;BME280;64750;52.134;5.424;2023-07-31T03:24:08;100987.56;;;17.34;89.55
72086;BME280;64750;52.134;5.424;2023-07-31T03:26:34;100983.13;;;17.34;89.71
72086;BME280;64750;52.134;5.424;2023-07-31T03:29:03;100978.78;;;17.33;89.87
72086;BME280;64750;52.134;5.424;2023-07-31T03:31:29;100978.06;;;17.31;89.23
72086;BME280;64750;52.134;5.424;2023-07-31T03:33:55;100971.06;;;17.30;89.63
72086;BME280;64750;52.134;5.424;2023-07-31T03:36:22;100985.88;;;17.33;89.57
72086;BME280;64750;52.134;5.424;2023-07-31T03:38:48;100976.13;;;17.33;89.63
72086;BME280;64750;52.134;5.424;2023-07-31T03:41:15;100973.84;;;17.29;89.46
72086;BME280;64750;52.134;5.424;2023-07-31T03:43:41;100977.47;;;17.28;89.63
72086;BME280;64750;52.134;5.424;2023-07-31T03:46:08;100973.03;;;17.28;89.67
72086;BME280;64750;52.134;5.424;2023-07-31T03:48:34;100974.72;;;17.29;89.33
72086;BME280;64750;52.134;5.424;2023-07-31T03:51:01;100976.38;;;17.30;89.41
72086;BME280;64750;52.134;5.424;2023-07-31T03:53:27;100981.81;;;17.29;89.03
72086;BME280;64750;52.134;5.424;2023-07-31T03:55:54;100968.81;;;17.26;89.06
72086;BME280;64750;52.134;5.424;2023-07-31T03:58:20;100968.81;;;17.26;89.16
72086;BME280;64750;52.134;5.424;2023-07-31T04:00:47;100969.66;;;17.26;89.34
72086;BME280;64750;52.134;5.424;2023-07-31T04:03:13;100958.19;;;17.26;88.88
72086;BME280;64750;52.134;5.424;2023-07-31T04:05:40;100964.34;;;17.26;89.04
72086;BME280;64750;52.134;5.424;2023-07-31T04:08:06;100966.41;;;17.22;88.92
72086;BME280;64750;52.134;5.424;2023-07-31T04:10:33;100955.78;;;17.22;88.85
72086;BME280;64750;52.134;5.424;2023-07-31T04:13:03;100953.41;;;17.19;89.01
72086;BME280;64750;52.134;5.424;2023-07-31T04:15:29;100949.91;;;17.19;89.04
72086;BME280;64750;52.134;5.424;2023-07-31T04:17:56;100949.91;;;17.19;88.96
72086;BME280;64750;52.134;5.424;2023-07-31T04:20:22;100938.81;;;17.14;88.72
72086;BME280;64750;52.134;5.424;2023-07-31T04:22:49;100937.75;;;17.16;88.91
72086;BME280;64750;52.134;5.424;2023-07-31T04:25:16;100930.59;;;17.17;88.41
72086;BME280;64750;52.134;5.424;2023-07-31T04:27:42;100933.97;;;17.19;88.68
72086;BME280;64750;52.134;5.424;2023-07-31T04:30:09;100924.47;;;17.16;88.31
72086;BME280;64750;52.134;5.424;2023-07-31T04:32:35;100922.88;;;17.14;88.49
72086;BME280;64750;52.134;5.424;2023-07-31T04:35:02;100930.84;;;17.14;88.26
72086;BME280;64750;52.134;5.424;2023-07-31T04:37:29;100928.19;;;17.14;88.18
72086;BME280;64750;52.134;5.424;2023-07-31T04:39:56;100946.94;;;17.12;88.34
72086;BME280;64750;52.134;5.424;2023-07-31T04:42:22;100942.72;;;17.10;88.26
72086;BME280;64750;52.134;5.424;2023-07-31T04:44:49;100941.03;;;17.09;88.02
72086;BME280;64750;52.134;5.424;2023-07-31T04:47:15;100941.03;;;17.09;88.39
72086;BME280;64750;52.134;5.424;2023-07-31T04:49:42;100939.25;;;17.09;88.14
72086;BME280;64750;52.134;5.424;2023-07-31T04:52:08;100932.09;;;17.10;88.26
72086;BME280;64750;52.134;5.424;2023-07-31T04:54:34;100938.38;;;17.09;88.48
72086;BME280;64750;52.134;5.424;2023-07-31T04:57:01;100931.28;;;17.09;88.69
72086;BME280;64750;52.134;5.424;2023-07-31T04:59:27;100927.91;;;17.07;88.80
72086;BME280;64750;52.134;5.424;2023-07-31T05:01:54;100923.44;;;17.08;88.68
72086;BME280;64750;52.134;5.424;2023-07-31T05:04:20;100918.38;;;17.04;89.03
72086;BME280;64750;52.134;5.424;2023-07-31T05:06:47;100915.88;;;17.03;89.09
72086;BME280;64750;52.134;5.424;2023-07-31T05:09:13;100915.16;;;17.01;89.05
72086;BME280;64750;52.134;5.424;2023-07-31T05:11:41;100910.56;;;17.03;89.25
72086;BME280;64750;52.134;5.424;2023-07-31T05:14:09;100914.91;;;17.04;89.35
72086;BME280;64750;52.134;5.424;2023-07-31T05:16:35;100908.72;;;17.03;89.76
72086;BME280;64750;52.134;5.424;2023-07-31T05:19:02;100910.41;;;17.04;89.78
72086;BME280;64750;52.134;5.424;2023-07-31T05:21:29;100903.16;;;17.07;89.76
72086;BME280;64750;52.134;5.424;2023-07-31T05:23:55;100906.06;;;17.03;89.40
72086;BME280;64750;52.134;5.424;2023-07-31T05:26:22;100906.22;;;17.02;89.65
72086;BME280;64750;52.134;5.424;2023-07-31T05:28:48;100901.63;;;17.04;89.68
72086;BME280;64750;52.134;5.424;2023-07-31T05:31:15;100903.31;;;17.05;89.52
72086;BME280;64750;52.134;5.424;2023-07-31T05:33:41;100902.88;;;17.00;89.83
72086;BME280;64750;52.134;5.424;2023-07-31T05:36:08;100896.69;;;16.99;89.65
72086;BME280;64750;52.134;5.424;2023-07-31T05:38:35;100888.28;;;16.94;89.46
72086;BME280;64750;52.134;5.424;2023-07-31T05:41:02;100900.75;;;16.94;89.68
72086;BME280;64750;52.134;5.424;2023-07-31T05:43:28;100888.56;;;16.91;89.82
72086;BME280;64750;52.134;5.424;2023-07-31T05:45:55;100884.19;;;16.90;89.59
72086;BME280;64750;52.134;5.424;2023-07-31T05:48:21;100886.75;;;16.92;89.69
72086;BME280;64750;52.134;5.424;2023-07-31T05:50:48;100869.50;;;16.86;89.61
72086;BME280;64750;52.134;5.424;2023-07-31T05:53:14;100874.44;;;16.91;89.80
72086;BME280;64750;52.134;5.424;2023-07-31T05:55:41;100863.25;;;16.87;89.70
72086;BME280;64750;52.134;5.424;2023-07-31T05:58:07;100872.75;;;16.89;89.79
72086;BME280;64750;52.134;5.424;2023-07-31T06:00:34;100859.72;;;16.86;89.73
72086;BME280;64750;52.134;5.424;2023-07-31T06:03:01;100864.91;;;16.88;90.00
72086;BME280;64750;52.134;5.424;2023-07-31T06:05:27;100860.44;;;16.88;90.14
72086;BME280;64750;52.134;5.424;2023-07-31T06:07:57;100854.06;;;16.91;90.21
72086;BME280;64750;52.134;5.424;2023-07-31T06:10:23;100849.44;;;16.93;90.20
72086;BME280;64750;52.134;5.424;2023-07-31T06:12:50;100859.94;;;16.95;90.48
72086;BME280;64750;52.134;5.424;2023-07-31T06:15:16;100856.81;;;16.89;90.24
72086;BME280;64750;52.134;5.424;2023-07-31T06:17:45;100860.44;;;16.88;90.51
72086;BME280;64750;52.134;5.424;2023-07-31T06:20:12;100849.81;;;16.88;90.63
72086;BME280;64750;52.134;5.424;2023-07-31T06:22:38;100850.66;;;16.89;90.71
72086;BME280;64750;52.134;5.424;2023-07-31T06:25:05;100853.44;;;16.87;90.86
72086;BME280;64750;52.134;5.424;2023-07-31T06:27:32;100850.66;;;16.89;90.78
72086;BME280;64750;52.134;5.424;2023-07-31T06:29:58;100851.41;;;16.91;90.64
72086;BME280;64750;52.134;5.424;2023-07-31T06:32:24;100848.97;;;16.88;90.76
72086;BME280;64750;52.134;5.424;2023-07-31T06:34:51;100838.63;;;16.85;90.66
72086;BME280;64750;52.134;5.424;2023-07-31T06:37:18;100836.13;;;16.83;90.81
72086;BME280;64750;52.134;5.424;2023-07-31T06:39:44;100824.38;;;16.86;90.71
72086;BME280;64750;52.134;5.424;2023-07-31T06:42:11;100830.16;;;16.91;90.86
72086;BME280;64750;52.134;5.424;2023-07-31T06:44:37;100821.34;;;16.91;91.17
72086;BME280;64750;52.134;5.424;2023-07-31T06:47:04;100824.09;;;16.89;91.41
72086;BME280;64750;52.134;5.424;2023-07-31T06:49:30;100818.94;;;16.87;91.58
72086;BME280;64750;52.134;5.424;2023-07-31T06:51:57;100814.47;;;16.88;91.50
72086;BME280;64750;52.134;5.424;2023-07-31T06:54:23;100814.34;;;16.89;91.45
72086;BME280;64750;52.134;5.424;2023-07-31T06:56:50;100811.59;;;16.91;91.67
72086;BME280;64750;52.134;5.424;2023-07-31T06:59:16;100813.78;;;16.86;91.71
72086;BME280;64750;52.134;5.424;2023-07-31T07:01:43;100813.50;;;16.89;92.19
72086;BME280;64750;52.134;5.424;2023-07-31T07:04:09;100812.53;;;16.90;92.11
72086;BME280;64750;52.134;5.424;2023-07-31T07:06:36;100807.50;;;16.87;92.41
72086;BME280;64750;52.134;5.424;2023-07-31T07:09:03;100804.56;;;16.90;92.44
72086;BME280;64750;52.134;5.424;2023-07-31T07:11:31;100813.97;;;16.94;92.36
72086;BME280;64750;52.134;5.424;2023-07-31T07:13:57;100806.97;;;16.93;92.60
72086;BME280;64750;52.134;5.424;2023-07-31T07:16:24;100808.66;;;16.94;92.67
72086;BME280;64750;52.134;5.424;2023-07-31T07:18:50;100799.72;;;16.95;92.66
72086;BME280;64750;52.134;5.424;2023-07-31T07:21:30;100797.63;;;16.99;92.86
72086;BME280;64750;52.134;5.424;2023-07-31T07:23:56;100801.84;;;17.01;92.53
72086;BME280;64750;52.134;5.424;2023-07-31T07:26:23;100797.34;;;17.02;92.83
72086;BME280;64750;52.134;5.424;2023-07-31T07:28:49;100798.22;;;17.02;92.83
72086;BME280;64750;52.134;5.424;2023-07-31T07:31:16;100796.38;;;17.03;92.58
72086;BME280;64750;52.134;5.424;2023-07-31T07:33:42;100805.19;;;17.03;92.80
72086;BME280;64750;52.134;5.424;2023-07-31T07:36:09;100800.56;;;17.05;93.36
72086;BME280;64750;52.134;5.424;2023-07-31T07:38:36;100796.38;;;17.03;93.40
72086;BME280;64750;52.134;5.424;2023-07-31T07:41:03;100797.09;;;17.05;93.18
72086;BME280;64750;52.134;5.424;2023-07-31T07:43:30;100797.94;;;17.05;93.40
72086;BME280;64750;52.134;5.424;2023-07-31T07:45:56;100794.31;;;17.07;93.35
72086;BME280;64750;52.134;5.424;2023-07-31T07:48:23;100793.19;;;17.09;93.77
72086;BME280;64750;52.134;5.424;2023-07-31T07:50:51;100786.91;;;17.10;94.22
72086;BME280;64750;52.134;5.424;2023-07-31T07:53:17;100781.44;;;17.12;94.37
72086;BME280;64750;52.134;5.424;2023-07-31T07:55:44;100781.16;;;17.15;94.19
72086;BME280;64750;52.134;5.424;2023-07-31T07:58:10;100785.50;;;17.16;94.43
72086;BME280;64750;52.134;5.424;2023-07-31T08:00:37;100780.06;;;17.17;94.53
72086;BME280;64750;52.134;5.424;2023-07-31T08:03:03;100776.44;;;17.18;94.62
72086;BME280;64750;52.134;5.424;2023-07-31T08:05:30;100780.78;;;17.19;94.45
72086;BME280;64750;52.134;5.424;2023-07-31T08:08:00;100782.59;;;17.19;94.50
72086;BME280;64750;52.134;5.424;2023-07-31T08:10:27;100779.09;;;17.18;94.43
72086;BME280;64750;52.134;5.424;2023-07-31T08:12:53;100773.63;;;17.20;94.68
72086;BME280;64750;52.134;5.424;2023-07-31T08:15:20;100768.31;;;17.20;94.84
72086;BME280;64750;52.134;5.424;2023-07-31T08:17:46;100764.69;;;17.21;94.84
72086;BME280;64750;52.134;5.424;2023-07-31T08:20:13;100771.69;;;17.22;94.88
72086;BME280;64750;52.134;5.424;2023-07-31T08:22:40;100767.34;;;17.21;94.94
72086;BME280;64750;52.134;5.424;2023-07-31T08:25:07;100761.88;;;17.22;95.03
72086;BME280;64750;52.134;5.424;2023-07-31T08:27:34;100765.25;;;17.25;95.21
72086;BME280;64750;52.134;5.424;2023-07-31T08:30:00;100770.28;;;17.28;95.34
72086;BME280;64750;52.134;5.424;2023-07-31T08:32:27;100760.22;;;17.31;95.40
72086;BME280;64750;52.134;5.424;2023-07-31T08:34:53;100753.22;;;17.30;95.40
72086;BME280;64750;52.134;5.424;2023-07-31T08:37:20;100753.66;;;17.35;95.24
72086;BME280;64750;52.134;5.424;2023-07-31T08:39:46;100750.88;;;17.37;95.53
72086;BME280;64750;52.134;5.424;2023-07-31T08:42:13;100752.53;;;17.38;95.29
72086;BME280;64750;52.134;5.424;2023-07-31T08:44:40;100754.50;;;17.36;95.35
72086;BME280;64750;52.134;5.424;2023-07-31T08:47:07;100757.72;;;17.40;95.61
72086;BME280;64750;52.134;5.424;2023-07-31T08:49:34;100751.16;;;17.44;95.43
72086;BME280;64750;52.134;5.424;2023-07-31T08:52:02;100750.03;;;17.46;95.70
72086;BME280;64750;52.134;5.424;2023-07-31T08:54:29;100752.56;;;17.48;95.45
72086;BME280;64750;52.134;5.424;2023-07-31T08:56:57;100755.06;;;17.49;95.55
72086;BME280;64750;52.134;5.424;2023-07-31T08:59:30;100741.91;;;17.48;95.82
72086;BME280;64750;52.134;5.424;2023-07-31T09:02:03;100742.91;;;17.47;95.99
72086;BME280;64750;52.134;5.424;2023-07-31T09:04:32;100751.56;;;17.49;96.02
72086;BME280;64750;52.134;5.424;2023-07-31T09:07:03;100750.59;;;17.50;96.09
72086;BME280;64750;52.134;5.424;2023-07-31T09:09:31;100751.44;;;17.50;95.78
72086;BME280;64750;52.134;5.424;2023-07-31T09:11:58;100741.50;;;17.52;95.95
72086;BME280;64750;52.134;5.424;2023-07-31T09:14:26;100755.47;;;17.54;96.50
72086;BME280;64750;52.134;5.424;2023-07-31T09:16:56;100754.34;;;17.57;96.81
72086;BME280;64750;52.134;5.424;2023-07-31T09:19:42;100749.75;;;17.59;96.74
72086;BME280;64750;52.134;5.424;2023-07-31T09:22:09;100740.09;;;17.58;96.50
72086;BME280;64750;52.134;5.424;2023-07-31T09:24:35;100737.59;;;17.57;96.39
72086;BME280;64750;52.134;5.424;2023-07-31T09:27:02;100749.50;;;17.52;96.32
72086;BME280;64750;52.134;5.424;2023-07-31T09:29:28;100736.31;;;17.51;96.39
72086;BME280;64750;52.134;5.424;2023-07-31T09:31:56;100742.34;;;17.53;96.35
72086;BME280;64750;52.134;5.424;2023-07-31T09:34:30;100730.59;;;17.55;96.47
72086;BME280;64750;52.134;5.424;2023-07-31T09:37:01;100730.59;;;17.55;96.74
72086;BME280;64750;52.134;5.424;2023-07-31T09:39:29;100733.97;;;17.58;96.60
72086;BME280;64750;52.134;5.424;2023-07-31T09:41:56;100740.81;;;17.60;96.28
72086;BME280;64750;52.134;5.424;2023-07-31T09:44:39;100732.13;;;17.58;96.65
72086;BME280;64750;52.134;5.424;2023-07-31T09:47:23;100731.72;;;17.63;97.06
72086;BME280;64750;52.134;5.424;2023-07-31T09:50:05;100725.84;;;17.69;97.06
72086;BME280;64750;52.134;5.424;2023-07-31T09:52:33;100731.00;;;17.70;96.73
72086;BME280;64750;52.134;5.424;2023-07-31T09:54:59;100736.88;;;17.74;97.03
72086;BME280;64750;52.134;5.424;2023-07-31T09:57:27;100725.25;;;17.75;96.94
72086;BME280;64750;52.134;5.424;2023-07-31T09:59:54;100728.91;;;17.74;96.78
72086;BME280;64750;52.134;5.424;2023-07-31T10:02:22;100736.59;;;17.77;96.99
72086;BME280;64750;52.134;5.424;2023-07-31T10:04:50;100721.63;;;17.76;97.30
72086;BME280;64750;52.134;5.424;2023-07-31T10:07:18;100722.47;;;17.77;97.10
72086;BME280;64750;52.134;5.424;2023-07-31T10:09:45;100715.19;;;17.79;97.12
72086;BME280;64750;52.134;5.424;2023-07-31T10:12:14;100725.81;;;17.79;97.26
72086;BME280;64750;52.134;5.424;2023-07-31T10:14:42;100726.22;;;17.84;97.40
72086;BME280;64750;52.134;5.424;2023-07-31T10:17:08;100741.19;;;17.85;97.14
72086;BME280;64750;52.134;5.424;2023-07-31T10:19:36;100727.19;;;17.83;97.36
72086;BME280;64750;52.134;5.424;2023-07-31T10:22:03;100727.19;;;17.83;96.76
72086;BME280;64750;52.134;5.424;2023-07-31T10:24:31;100741.50;;;17.82;97.14
72086;BME280;64750;52.134;5.424;2023-07-31T10:27:00;100732.50;;;17.83;97.40
72086;BME280;64750;52.134;5.424;2023-07-31T10:29:28;100725.38;;;17.83;97.44
72086;BME280;64750;52.134;5.424;2023-07-31T10:31:57;100727.19;;;17.83;97.13
72086;BME280;64750;52.134;5.424;2023-07-31T10:34:24;100735.31;;;17.81;96.90
72086;BME280;64750;52.134;5.424;2023-07-31T10:37:24;100725.66;;;17.80;96.88
72086;BME280;64750;52.134;5.424;2023-07-31T10:42:30;100726.94;;;17.86;96.97
72086;BME280;64750;52.134;5.424;2023-07-31T10:44:59;100727.75;;;17.86;97.09
72086;BME280;64750;52.134;5.424;2023-07-31T10:47:26;100726.63;;;17.89;97.21
72086;BME280;64750;52.134;5.424;2023-07-31T10:49:52;100731.94;;;17.89;97.15
72086;BME280;64750;52.134;5.424;2023-07-31T10:52:20;100729.13;;;17.91;97.24
72086;BME280;64750;52.134;5.424;2023-07-31T10:58:18;100733.09;;;17.96;97.12
72086;BME280;64750;52.134;5.424;2023-07-31T11:00:44;100729.47;;;17.97;97.08
72086;BME280;64750;52.134;5.424;2023-07-31T11:03:13;100723.00;;;18.00;97.49
72086;BME280;64750;52.134;5.424;2023-07-31T11:08:16;100723.00;;;18.00;97.23
72086;BME280;64750;52.134;5.424;2023-07-31T11:10:44;100729.00;;;18.02;97.03
72086;BME280;64750;52.134;5.424;2023-07-31T11:13:10;100723.53;;;18.03;97.18
72086;BME280;64750;52.134;5.424;2023-07-31T11:15:37;100735.03;;;18.04;97.14
72086;BME280;64750;52.134;5.424;2023-07-31T11:18:04;100730.41;;;18.06;97.65
72086;BME280;64750;52.134;5.424;2023-07-31T11:20:33;100726.75;;;18.07;97.72
72086;BME280;64750;52.134;5.424;2023-07-31T11:23:06;100728.59;;;18.07;97.50
72086;BME280;64750;52.134;5.424;2023-07-31T11:25:33;100726.63;;;18.09;97.32
72086;BME280;64750;52.134;5.424;2023-07-31T11:28:11;100721.31;;;18.09;97.42
72086;BME280;64750;52.134;5.424;2023-07-31T11:30:39;100719.63;;;18.08;97.55
72086;BME280;64750;52.134;5.424;2023-07-31T11:33:08;100715.13;;;18.08;97.95
72086;BME280;64750;52.134;5.424;2023-07-31T11:35:41;100708.69;;;18.11;97.73
72086;BME280;64750;52.134;5.424;2023-07-31T11:38:08;100719.34;;;18.11;97.64
72086;BME280;64750;52.134;5.424;2023-07-31T11:40:44;100721.31;;;18.09;97.67
72086;BME280;64750;52.134;5.424;2023-07-31T11:43:11;100712.63;;;18.07;98.00
72086;BME280;64750;52.134;5.424;2023-07-31T11:45:51;100716.00;;;18.09;97.95
72086;BME280;64750;52.134;5.424;2023-07-31T11:48:19;100711.66;;;18.08;97.82
72086;BME280;64750;52.134;5.424;2023-07-31T11:50:46;100708.28;;;18.06;97.67
72086;BME280;64750;52.134;5.424;2023-07-31T11:53:13;100717.94;;;18.07;97.63
72086;BME280;64750;52.134;5.424;2023-07-31T11:55:40;100705.34;;;18.09;97.82
72086;BME280;64750;52.134;5.424;2023-07-31T11:58:06;100705.22;;;18.10;97.52
72086;BME280;64750;52.134;5.424;2023-07-31T12:00:33;100709.66;;;18.10;97.52
72086;BME280;64750;52.134;5.424;2023-07-31T12:03:02;100699.19;;;18.08;97.47
72086;BME280;64750;52.134;5.424;2023-07-31T12:05:29;100706.34;;;18.08;97.31
72086;BME280;64750;52.134;5.424;2023-07-31T12:07:56;100700.31;;;18.06;97.10
72086;BME280;64750;52.134;5.424;2023-07-31T12:10:28;100715.13;;;18.08;97.27
72086;BME280;64750;52.134;5.424;2023-07-31T12:13:00;100705.34;;;18.09;97.26
72086;BME280;64750;52.134;5.424;2023-07-31T12:15:39;100712.31;;;18.10;97.45
72086;BME280;64750;52.134;5.424;2023-07-31T12:18:13;100714.00;;;18.11;97.35
72086;BME280;64750;52.134;5.424;2023-07-31T12:20:45;100706.75;;;18.13;97.43
72086;BME280;64750;52.134;5.424;2023-07-31T12:23:14;100705.75;;;18.14;97.38
72086;BME280;64750;52.134;5.424;2023-07-31T12:25:41;100705.63;;;18.15;97.89
72086;BME280;64750;52.134;5.424;2023-07-31T12:28:08;100707.13;;;18.18;97.72
72086;BME280;64750;52.134;5.424;2023-07-31T12:30:40;100703.63;;;18.17;97.44
72086;BME280;64750;52.134;5.424;2023-07-31T12:33:13;100689.50;;;18.17;97.64
72086;BME280;64750;52.134;5.424;2023-07-31T12:35:43;100684.88;;;18.19;97.26
72086;BME280;64750;52.134;5.424;2023-07-31T12:38:11;100677.56;;;18.21;97.06
72086;BME280;64750;52.134;5.424;2023-07-31T12:40:39;100675.91;;;18.20;97.21
72086;BME280;64750;52.134;5.424;2023-07-31T12:43:06;100678.56;;;18.20;97.26
72086;BME280;64750;52.134;5.424;2023-07-31T12:45:33;100671.59;;;18.19;97.45
72086;BME280;64750;52.134;5.424;2023-07-31T12:48:01;100666.25;;;18.19;97.17
72086;BME280;64750;52.134;5.424;2023-07-31T12:50:27;100673.13;;;18.22;97.50
72086;BME280;64750;52.134;5.424;2023-07-31T12:52:54;100679.25;;;18.22;97.29
72086;BME280;64750;52.134;5.424;2023-07-31T12:55:22;100675.63;;;18.23;97.21
72086;BME280;64750;52.134;5.424;2023-07-31T12:57:49;100670.31;;;18.23;96.97
72086;BME280;64750;52.134;5.424;2023-07-31T13:00:16;100659.66;;;18.23;96.98
72086;BME280;64750;52.134;5.424;2023-07-31T13:02:43;100661.19;;;18.26;96.87
72086;BME280;64750;52.134;5.424;2023-07-31T13:05:09;100664.41;;;18.29;96.91
72086;BME280;64750;52.134;5.424;2023-07-31T13:07:36;100666.03;;;18.30;96.81